Time;durP1;ratioP1;P1;durP2;ratioP2;P2;SDS_P1;SDS_P2;PMS_P1;PMS_P2;Temp;Humidity;BMP_temperature;BMP_pressure;BME280_temperature;BME280_humidity;BME280_pressure;Samples;Min_cycle;Max_cycle;Signal;HPM_P1;HPM_P2
2022/04/21 00:00:32;;;;;;;6.20;5.90;;;;;;;7.00;100.00;100356.94;5053497;28;20029;-62
2022/04/21 00:02:57;;;;;;;5.50;5.30;;;;;;;7.06;100.00;100360.75;5051837;28;20055;-62
2022/04/21 00:05:23;;;;;;;5.68;5.47;;;;;;;7.05;100.00;100354.66;5053182;28;20025;-62
2022/04/21 00:07:48;;;;;;;5.75;5.55;;;;;;;6.91;100.00;100352.59;5051927;28;20028;-61
2022/04/21 00:10:15;;;;;;;5.50;5.30;;;;;;;7.01;100.00;100369.13;5053148;28;20035;-61
2022/04/21 00:12:41;;;;;;;5.72;5.53;;;;;;;7.05;100.00;100367.00;5053015;28;20171;-62
2022/04/21 00:15:07;;;;;;;6.03;5.72;;;;;;;7.05;100.00;100367.00;5042868;28;20029;-61
2022/04/21 00:17:33;;;;;;;5.80;5.60;;;;;;;6.99;100.00;100373.75;5050509;28;20031;-62
2022/04/21 00:19:59;;;;;;;5.82;5.63;;;;;;;6.98;100.00;100372.09;5052503;28;20020;-62
2022/04/21 00:25:09;;;;;;;;;;;;;;;6.95;100.00;100366.28;5042227;28;20036;-62
2022/04/21 00:27:43;;;;;;;5.80;5.60;;;;;;;6.90;100.00;100367.59;5052587;28;19912;-62
2022/04/21 00:30:10;;;;;;;5.70;5.50;;;;;;;6.89;100.00;100367.72;5051425;28;20024;-62
2022/04/21 00:32:40;;;;;;;5.63;5.43;;;;;;;6.82;100.00;100372.78;5050213;28;20048;-62
2022/04/21 00:35:08;;;;;;;5.78;5.57;;;;;;;6.85;100.00;100375.13;5049348;28;20085;-61
2022/04/21 00:37:50;;;;;;;5.68;5.47;;;;;;;6.83;100.00;100374.47;5052504;28;20021;-61
2022/04/21 00:40:18;;;;;;;5.85;5.63;;;;;;;6.86;100.00;100370.69;5052622;28;20488;-61
2022/04/21 00:42:44;;;;;;;5.38;5.18;;;;;;;6.87;100.00;100372.34;5052582;28;20437;-62
2022/04/21 00:45:11;;;;;;;6.05;5.75;;;;;;;6.83;100.00;100366.56;5052572;28;20025;-62
2022/04/21 00:47:40;;;;;;;5.78;5.57;;;;;;;6.58;100.00;100362.91;5052279;28;20032;-62
2022/04/21 00:50:09;;;;;;;5.70;5.50;;;;;;;6.78;100.00;100366.19;5051967;28;20032;-62
2022/04/21 00:52:35;;;;;;;5.60;5.40;;;;;;;6.49;100.00;100373.53;5051224;28;20057;-61
2022/04/21 00:55:00;;;;;;;5.80;5.60;;;;;;;6.71;100.00;100369.59;5052346;28;20073;-61
2022/04/21 00:57:27;;;;;;;5.70;5.50;;;;;;;6.69;100.00;100366.28;5052160;28;20454;-62
2022/04/21 00:59:53;;;;;;;5.80;5.60;;;;;;;6.63;100.00;100373.81;5052256;28;20021;-62
2022/04/21 01:05:03;;;;;;;5.82;5.63;;;;;;;6.42;100.00;100383.84;5045525;28;20035;-61
2022/04/21 01:07:29;;;;;;;5.70;5.50;;;;;;;6.43;100.00;100377.59;5050556;28;20024;-61
2022/04/21 01:09:55;;;;;;;5.60;5.40;;;;;;;6.51;100.00;100377.66;5051226;28;20070;-62
2022/04/21 01:12:23;;;;;;;5.72;5.53;;;;;;;6.40;100.00;100377.91;5052033;28;20033;-62
2022/04/21 01:14:49;;;;;;;5.60;5.40;;;;;;;6.33;100.00;100385.59;5044897;28;20491;-62
2022/04/21 01:17:15;;;;;;;5.68;5.47;;;;;;;6.33;100.00;100374.22;5048864;28;20055;-62
2022/04/21 01:19:41;;;;;;;6.10;5.80;;;;;;;6.31;100.00;100378.78;5052083;28;20063;-62
2022/04/21 01:22:07;;;;;;;5.70;5.50;;;;;;;6.31;100.00;100371.72;5052192;28;20464;-62
2022/04/21 01:24:33;;;;;;;5.85;5.65;;;;;;;6.33;100.00;100374.22;5052382;28;20035;-62
2022/04/21 01:27:00;;;;;;;5.60;5.40;;;;;;;6.19;100.00;100378.22;5051167;28;20495;-62
2022/04/21 01:29:27;;;;;;;5.63;5.43;;;;;;;6.13;100.00;100367.44;5051846;28;20017;-61
2022/04/21 01:31:53;;;;;;;5.80;5.60;;;;;;;6.23;100.00;100374.28;5050800;28;20029;-62
2022/04/21 01:34:19;;;;;;;5.97;5.70;;;;;;;6.09;100.00;100378.25;5038615;28;20029;-62
2022/04/21 01:42:16;;;;;;;5.70;5.50;;;;;;;6.00;100.00;100373.88;5051147;28;20392;-61
2022/04/21 01:44:43;;;;;;;5.60;5.40;;;;;;;5.95;100.00;100363.00;5050325;28;20100;-62
2022/04/21 01:47:08;;;;;;;6.20;5.90;;;;;;;6.06;100.00;100368.03;5041814;28;20538;-61
2022/04/21 01:49:34;;;;;;;5.95;5.68;;;;;;;5.94;100.00;100360.50;5048582;28;20100;-61
2022/04/21 01:51:59;;;;;;;6.10;5.80;;;;;;;6.00;100.00;100365.16;5051600;28;20404;-62
2022/04/21 01:54:25;;;;;;;5.40;5.20;;;;;;;5.90;100.00;100359.13;5051660;28;20028;-61
2022/04/21 01:56:50;;;;;;;6.25;5.95;;;;;;;5.98;100.00;100351.31;5051354;28;20117;-62
2022/04/21 01:59:16;;;;;;;5.63;5.43;;;;;;;5.97;100.00;100345.25;5051437;28;20126;-62
2022/04/21 02:01:41;;;;;;;6.00;5.70;;;;;;;5.89;100.00;100354.81;5038947;28;20036;-62
2022/04/21 02:04:07;;;;;;;5.97;5.72;;;;;;;5.95;100.00;100346.34;5051350;28;20017;-61
2022/04/21 02:06:32;;;;;;;5.80;5.60;;;;;;;6.03;100.00;100349.91;5047798;28;20025;-62
2022/04/21 02:08:58;;;;;;;5.75;5.55;;;;;;;5.83;100.00;100349.16;5051438;28;20020;-62
2022/04/21 02:11:24;;;;;;;6.00;5.72;;;;;;;5.96;100.00;100345.38;5051382;28;20408;-62
2022/04/21 02:13:49;;;;;;;5.93;5.70;;;;;;;5.99;100.00;100347.72;5049956;28;20113;-62
2022/04/21 02:16:15;;;;;;;5.50;5.30;;;;;;;5.94;100.00;100342.88;5044504;28;20108;-61
2022/04/21 02:18:40;;;;;;;5.65;5.45;;;;;;;5.94;100.00;100339.41;5050490;28;20087;-61
2022/04/21 02:21:06;;;;;;;5.75;5.55;;;;;;;5.83;100.00;100335.19;5051137;28;20052;-61
2022/04/21 02:23:31;;;;;;;5.80;5.60;;;;;;;5.81;100.00;100337.97;5051293;28;20100;-62
2022/04/21 02:25:56;;;;;;;5.95;5.70;;;;;;;5.80;100.00;100330.19;5051043;28;20029;-61
2022/04/21 02:28:22;;;;;;;6.32;6.03;;;;;;;5.80;100.00;100332.84;5049257;28;20082;-61
2022/04/21 02:30:48;;;;;;;6.03;5.72;;;;;;;5.88;100.00;100325.03;5048039;28;20020;-61
2022/04/21 02:33:13;;;;;;;5.70;5.50;;;;;;;5.95;100.00;100326.13;5060693;28;20372;-62
2022/04/21 02:35:39;;;;;;;5.68;5.47;;;;;;;5.98;100.00;100312.66;5053018;28;20098;-62
2022/04/21 02:38:04;;;;;;;6.13;5.82;;;;;;;5.98;100.00;100328.47;5051356;28;20048;-61
2022/04/21 02:40:30;;;;;;;5.50;5.30;;;;;;;6.03;100.00;100309.59;5050927;28;20538;-61
2022/04/21 02:42:56;;;;;;;5.82;5.60;;;;;;;6.08;100.00;100317.84;5044602;28;20037;-61
2022/04/21 02:45:21;;;;;;;5.60;5.40;;;;;;;6.09;100.00;100312.41;5039117;28;20094;-61
2022/04/21 02:47:48;;;;;;;6.10;5.80;;;;;;;6.12;100.00;100308.69;5050878;28;20032;-61
2022/04/21 02:50:16;;;;;;;5.88;5.63;;;;;;;6.16;100.00;100303.91;5040195;28;20059;-61
2022/04/21 02:52:43;;;;;;;5.88;5.63;;;;;;;6.16;100.00;100296.84;5050028;28;20033;-62
2022/04/21 02:57:55;;;;;;;6.18;5.88;;;;;;;6.18;100.00;100287.00;5047759;28;20119;-61
2022/04/21 03:00:20;;;;;;;6.03;5.72;;;;;;;6.22;100.00;100298.03;5049577;28;20021;-61
2022/04/21 03:02:46;;;;;;;5.68;5.47;;;;;;;6.22;100.00;100290.97;5054565;28;20036;-62
2022/04/21 03:05:12;;;;;;;5.72;5.53;;;;;;;6.30;100.00;100293.66;5054331;28;20021;-62
2022/04/21 03:07:41;;;;;;;5.55;5.35;;;;;;;6.34;100.00;100296.84;5054124;28;20063;-62
2022/04/21 03:10:07;;;;;;;5.45;5.25;;;;;;;6.36;100.00;100303.59;5041179;28;20059;-62
2022/04/21 03:12:32;;;;;;;6.20;5.90;;;;;;;6.34;100.00;100299.47;5049256;28;20060;-62
2022/04/21 03:14:57;;;;;;;5.70;5.50;;;;;;;6.31;100.00;100291.84;5054014;28;20028;-61
2022/04/21 03:17:24;;;;;;;5.80;5.60;;;;;;;6.35;100.00;100298.50;5054133;28;20095;-62
2022/04/21 03:19:51;;;;;;;6.03;5.72;;;;;;;6.38;100.00;100300.81;5054178;28;20029;-62
2022/04/21 03:25:02;;;;;;;5.60;5.40;;;;;;;6.32;100.00;100301.44;5049271;28;20063;-62
2022/04/21 03:27:29;;;;;;;5.60;5.40;;;;;;;6.36;100.00;100290.44;5040489;28;20033;-62
2022/04/21 03:29:55;;;;;;;5.93;5.63;;;;;;;6.36;100.00;100300.97;5054244;28;20052;-62
2022/04/21 03:32:21;;;;;;;5.88;5.63;;;;;;;6.38;100.00;100293.72;5044891;28;20137;-62
2022/04/21 03:34:47;;;;;;;6.00;5.70;;;;;;;6.42;100.00;100296.06;5061124;28;20035;-60
2022/04/21 03:37:15;;;;;;;5.47;5.28;;;;;;;6.45;100.00;100293.94;5052783;28;20551;-63
2022/04/21 03:39:42;;;;;;;5.43;5.22;;;;;;;6.38;100.00;100287.63;5043735;28;20071;-60
2022/04/21 03:42:31;;;;;;;6.53;6.22;;;;;;;6.52;100.00;100300.25;5045534;28;20038;-61
2022/04/21 03:44:57;;;;;;;5.97;5.68;;;;;;;6.60;100.00;100291.56;5047759;28;20029;-62
2022/04/21 03:47:23;;;;;;;5.97;5.70;;;;;;;6.61;100.00;100296.72;5053143;28;20028;-61
2022/04/21 03:49:49;;;;;;;6.10;5.80;;;;;;;6.51;100.00;100295.97;5051061;28;20041;-61
2022/04/21 03:52:15;;;;;;;7.20;6.85;;;;;;;6.55;100.00;100299.13;5052508;28;20029;-62
2022/04/21 03:54:40;;;;;;;5.45;5.25;;;;;;;6.61;100.00;100299.34;5045827;28;20021;-62
2022/04/21 03:57:07;;;;;;;6.50;6.20;;;;;;;6.71;100.00;100299.25;5053138;28;20504;-62
2022/04/21 03:59:33;;;;;;;5.72;5.53;;;;;;;6.65;100.00;100305.13;5052590;28;20112;-62
2022/04/21 04:02:02;;;;;;;6.18;5.88;;;;;;;6.69;100.00;100305.66;5053398;28;20020;-62
2022/04/21 04:04:38;;;;;;;6.25;5.95;;;;;;;6.64;100.00;100303.47;5052833;28;20031;-61
2022/04/21 04:12:35;;;;;;;6.43;6.13;;;;;;;6.65;100.00;100315.66;5047786;28;20100;-62
2022/04/21 04:15:02;;;;;;;6.18;5.88;;;;;;;6.79;100.00;100320.38;5043959;28;20493;-62
2022/04/21 04:17:28;;;;;;;6.13;5.82;;;;;;;6.69;100.00;100303.84;5051390;28;20029;-62
2022/04/21 04:19:54;;;;;;;6.60;6.30;;;;;;;6.77;100.00;100314.44;5052795;28;20063;-62
2022/04/21 04:22:20;;;;;;;7.35;6.97;;;;;;;6.76;100.00;100322.50;5040619;28;20025;-61
2022/04/21 04:24:45;;;;;;;5.95;5.70;;;;;;;6.72;100.00;100321.97;5052700;28;20027;-63
2022/04/21 04:27:11;;;;;;;6.80;6.50;;;;;;;6.62;100.00;100302.81;5052559;28;20047;-62
2022/04/21 04:29:37;;;;;;;6.30;6.00;;;;;;;6.83;100.00;100324.38;5052644;28;20035;-62
2022/04/21 04:32:03;;;;;;;6.53;6.22;;;;;;;6.91;100.00;100323.59;5039085;28;20446;-62
2022/04/21 04:34:28;;;;;;;6.03;5.80;;;;;;;7.02;100.00;100328.59;5056081;28;20381;-62
2022/04/21 04:36:54;;;;;;;6.80;6.50;;;;;;;7.05;99.84;100328.28;5043159;28;20021;-63
2022/04/21 04:39:19;;;;;;;6.30;6.00;;;;;;;7.15;98.98;100330.81;5052614;28;20117;-62
2022/04/21 04:44:29;;;;;;;6.10;5.80;;;;;;;7.27;98.57;100331.34;5052551;28;20044;-63
2022/04/21 04:46:55;;;;;;;6.80;6.50;;;;;;;7.24;98.26;100336.94;5052212;28;20029;-62
2022/04/21 04:49:22;;;;;;;6.40;6.10;;;;;;;7.29;97.76;100339.94;5050088;28;20468;-62
2022/04/21 04:51:48;;;;;;;5.90;5.65;;;;;;;7.41;97.01;100339.47;5051105;28;20033;-63
2022/04/21 04:54:15;;;;;;;6.13;5.82;;;;;;;7.64;96.58;100345.03;5052414;28;20029;-62
2022/04/21 04:56:43;;;;;;;6.20;5.90;;;;;;;7.38;98.03;100336.34;5051980;28;20045;-62
2022/04/21 04:59:09;;;;;;;6.20;5.90;;;;;;;7.60;97.10;100343.69;5052307;28;20369;-61
2022/04/21 05:01:41;;;;;;;6.13;5.82;;;;;;;7.89;95.67;100356.47;5051742;28;20025;-61
2022/04/21 05:04:08;;;;;;;6.55;6.25;;;;;;;7.79;95.91;100354.97;5051535;28;20036;-62
2022/04/21 05:06:38;;;;;;;5.97;5.72;;;;;;;7.80;95.37;100351.34;5051813;28;20525;-62
2022/04/21 05:09:05;;;;;;;6.00;5.75;;;;;;;7.92;94.13;100356.16;5039453;28;20028;-62
2022/04/21 05:11:31;;;;;;;6.97;6.68;;;;;;;7.91;92.97;100354.50;5051862;28;20155;-62
2022/04/21 05:13:57;;;;;;;6.28;5.97;;;;;;;8.36;92.75;100347.97;5051850;28;20033;-62
2022/04/21 05:16:22;;;;;;;6.18;5.88;;;;;;;8.27;92.06;100344.47;5051470;28;20075;-62
2022/04/21 05:18:49;;;;;;;5.68;5.47;;;;;;;8.22;91.14;100348.59;5045411;28;20129;-62
2022/04/21 05:21:15;;;;;;;6.55;6.25;;;;;;;8.38;90.09;100355.78;5051572;28;20400;-61
2022/04/21 05:23:44;;;;;;;6.10;5.80;;;;;;;8.45;89.24;100352.31;5050449;28;20500;-63
2022/04/21 05:26:10;;;;;;;6.38;6.07;;;;;;;8.66;88.87;100354.41;5051980;28;20021;-61
2022/04/21 05:28:36;;;;;;;6.68;6.38;;;;;;;8.86;86.87;100355.72;5051259;28;20425;-62
2022/04/21 05:31:02;;;;;;;6.57;6.28;;;;;;;8.73;87.64;100352.75;5044966;28;20036;-63
2022/04/21 05:33:29;;;;;;;6.18;5.88;;;;;;;9.16;86.20;100348.06;5056614;28;20020;-63
2022/04/21 05:35:57;;;;;;;6.30;6.00;;;;;;;9.34;85.63;100359.25;5051277;28;20013;-61
2022/04/21 05:38:24;;;;;;;6.25;5.95;;;;;;;9.40;85.07;100357.72;5051250;28;20029;-62
2022/04/21 05:40:50;;;;;;;6.72;6.43;;;;;;;10.27;81.48;100360.28;5050412;28;20025;-62
2022/04/21 05:43:20;;;;;;;6.45;6.15;;;;;;;10.50;80.31;100354.00;5051347;28;20082;-63
2022/04/21 05:45:47;;;;;;;6.40;6.10;;;;;;;10.36;79.60;100352.13;5047715;28;20532;-62
2022/04/21 05:48:14;;;;;;;6.20;5.90;;;;;;;11.01;76.01;100350.69;5049814;28;20021;-62
2022/04/21 05:50:43;;;;;;;5.97;5.78;;;;;;;10.49;76.43;100347.00;5050770;28;20033;-62
2022/04/21 05:53:14;;;;;;;6.22;5.93;;;;;;;10.34;76.78;100347.97;5051515;28;20112;-63
2022/04/21 05:55:40;;;;;;;6.30;6.00;;;;;;;10.82;74.71;100340.63;5051656;28;20388;-63
2022/04/21 05:58:05;;;;;;;6.55;6.25;;;;;;;10.58;74.43;100341.66;5049992;28;20036;-63
2022/04/21 06:00:31;;;;;;;5.90;5.70;;;;;;;10.51;75.38;100345.03;5050357;28;20025;-62
2022/04/21 06:02:57;;;;;;;6.60;6.30;;;;;;;10.25;76.68;100344.56;5050793;28;20033;-63
2022/04/21 06:05:22;;;;;;;6.63;6.32;;;;;;;10.35;75.63;100350.44;5050114;28;20135;-63
2022/04/21 06:07:48;;;;;;;6.55;6.25;;;;;;;10.19;74.83;100350.53;5051000;28;20647;-62
2022/04/21 06:10:13;;;;;;;6.15;5.90;;;;;;;10.19;74.43;100354.00;5051293;28;20025;-62
2022/04/21 06:12:39;;;;;;;7.40;7.07;;;;;;;10.19;75.95;100350.53;5051225;28;20502;-62
2022/04/21 06:15:05;;;;;;;5.72;5.53;;;;;;;10.31;75.38;100358.94;5050074;28;20544;-62
2022/04/21 06:17:30;;;;;;;6.38;6.07;;;;;;;10.13;75.44;100356.53;5051559;28;20472;-62
2022/04/21 06:19:56;;;;;;;6.50;6.20;;;;;;;10.28;72.90;100351.31;5037795;28;20404;-61
2022/04/21 06:22:22;;;;;;;6.50;6.20;;;;;;;10.45;72.14;100337.78;5051464;28;20025;-61
2022/04/21 06:24:47;;;;;;;6.78;6.47;;;;;;;10.72;71.10;100362.06;5050759;28;20112;-63
2022/04/21 06:27:13;;;;;;;6.10;5.85;;;;;;;11.08;70.50;100359.56;5051500;28;20084;-61
2022/04/21 06:29:38;;;;;;;6.07;5.88;;;;;;;11.17;68.70;100355.84;5053145;28;20438;-63
2022/04/21 06:32:04;;;;;;;6.38;6.07;;;;;;;11.11;67.84;100361.06;5053965;28;20059;-62
2022/04/21 06:34:32;;;;;;;6.20;5.90;;;;;;;11.29;67.07;100361.50;5064064;28;20391;-62
2022/04/21 06:37:01;;;;;;;6.60;6.30;;;;;;;10.88;68.25;100350.50;5054327;28;20021;-62
2022/04/21 06:39:26;;;;;;;6.15;5.90;;;;;;;11.01;68.05;100354.16;5054926;28;20037;-62
2022/04/21 06:41:53;;;;;;;6.35;6.05;;;;;;;11.33;65.77;100354.84;5055067;28;20024;-62
2022/04/21 06:49:47;;;;;;;6.75;6.45;;;;;;;13.13;60.52;100352.94;5050061;28;20051;-62
2022/04/21 06:52:12;;;;;;;6.40;6.10;;;;;;;12.89;58.70;100355.06;5054349;28;20458;-62
2022/04/21 06:54:37;;;;;;;6.93;6.63;;;;;;;13.67;56.89;100346.91;5054685;28;20027;-63
2022/04/21 06:57:03;;;;;;;6.15;5.90;;;;;;;14.06;56.00;100355.03;5048047;28;20124;-62
2022/04/21 06:59:28;;;;;;;6.10;5.90;;;;;;;14.71;53.57;100342.00;5054296;28;20028;-62
2022/04/21 07:01:54;;;;;;;6.47;6.18;;;;;;;14.05;53.35;100347.25;5053994;28;20017;-63
2022/04/21 07:04:20;;;;;;;6.53;6.22;;;;;;;14.19;54.01;100353.44;5054009;28;20029;-62
2022/04/21 07:06:46;;;;;;;7.10;6.80;;;;;;;14.96;51.08;100346.69;5052861;28;20055;-62
2022/04/21 07:09:12;;;;;;;6.13;5.93;;;;;;;15.12;50.29;100354.25;5065430;28;20059;-62
2022/04/21 07:11:38;;;;;;;6.38;6.07;;;;;;;14.95;48.98;100342.38;5054278;28;20495;-62
2022/04/21 07:14:04;;;;;;;6.43;6.13;;;;;;;15.54;48.50;100352.09;5054420;28;20471;-62
2022/04/21 07:16:29;;;;;;;6.10;5.90;;;;;;;16.00;45.86;100343.88;5053992;28;20028;-62
2022/04/21 07:18:55;;;;;;;6.30;6.00;;;;;;;15.84;45.19;100349.75;5054356;28;20407;-63
2022/04/21 07:21:21;;;;;;;6.40;6.10;;;;;;;16.94;43.00;100350.22;5053921;28;20547;-61
2022/04/21 07:23:46;;;;;;;6.18;5.97;;;;;;;16.22;43.25;100342.50;5052964;28;20082;-63
2022/04/21 07:26:11;;;;;;;6.63;6.32;;;;;;;16.76;41.77;100343.78;5052726;28;20112;-63
2022/04/21 07:28:37;;;;;;;6.70;6.40;;;;;;;17.23;40.01;100336.09;5053934;28;20531;-62
2022/04/21 07:31:03;;;;;;;6.80;6.50;;;;;;;17.00;40.52;100339.44;5048149;28;20547;-61
2022/04/21 07:33:28;;;;;;;6.60;6.30;;;;;;;17.56;39.14;100335.75;5055983;28;20025;-61
2022/04/21 07:35:54;;;;;;;6.80;6.50;;;;;;;17.45;38.79;100327.63;5053455;28;20075;-63
2022/04/21 07:38:20;;;;;;;6.70;6.40;;;;;;;18.61;36.54;100339.84;5053871;28;20101;-63
2022/04/21 07:40:50;;;;;;;6.90;6.60;;;;;;;19.10;36.09;100329.72;5052408;28;20056;-63
2022/04/21 07:43:16;;;;;;;7.00;6.70;;;;;;;18.90;35.79;100335.47;5053563;28;20028;-63
2022/04/21 07:45:42;;;;;;;6.80;6.50;;;;;;;17.76;36.52;100327.44;5053522;28;20048;-63
2022/04/21 07:48:08;;;;;;;6.70;6.40;;;;;;;17.49;38.23;100334.19;5053133;28;20020;-63
2022/04/21 07:50:34;;;;;;;6.80;6.50;;;;;;;16.03;40.87;100322.06;5052621;28;20155;-63
2022/04/21 07:53:14;;;;;;;7.25;6.95;;;;;;;16.48;38.73;100320.09;5049544;28;20092;-63
2022/04/21 07:55:46;;;;;;;6.93;6.63;;;;;;;16.52;39.93;100315.09;5053236;28;20083;-63
2022/04/21 07:58:12;;;;;;;7.13;6.82;;;;;;;17.63;37.54;100316.88;5052028;28;20091;-63
2022/04/21 08:00:39;;;;;;;6.80;6.50;;;;;;;18.49;36.85;100321.00;5046847;28;20045;-62
2022/04/21 08:03:06;;;;;;;7.05;6.75;;;;;;;19.44;36.07;100318.06;5042868;28;20025;-63
2022/04/21 08:05:32;;;;;;;6.60;6.30;;;;;;;18.72;35.65;100312.19;5053338;28;20618;-63
2022/04/21 08:07:58;;;;;;;7.10;6.80;;;;;;;17.78;36.79;100319.22;5052580;28;20492;-63
2022/04/21 08:10:27;;;;;;;6.80;6.50;;;;;;;18.58;34.37;100300.84;5052102;28;20060;-63
2022/04/21 08:12:54;;;;;;;6.80;6.50;;;;;;;18.90;34.49;100314.78;5049828;28;20028;-63
2022/04/21 08:15:28;;;;;;;6.60;6.30;;;;;;;18.53;35.29;100311.47;5049390;28;20029;-64
2022/04/21 08:17:56;;;;;;;7.40;7.10;;;;;;;18.35;33.77;100306.97;5052669;28;20025;-63
2022/04/21 08:20:23;;;;;;;6.72;6.43;;;;;;;19.13;32.71;100303.16;5052954;28;20052;-63
2022/04/21 08:22:48;;;;;;;6.90;6.60;;;;;;;17.88;34.39;100306.88;5053294;28;20426;-63
2022/04/21 08:33:27;;;;;;;6.82;6.53;;;;;;;17.91;33.65;100295.66;5053723;28;20087;-64
2022/04/21 08:35:58;;;;;;;6.80;6.50;;;;;;;18.27;32.78;100293.06;5052217;28;20033;-62
2022/04/21 08:38:27;;;;;;;7.28;6.97;;;;;;;18.43;31.97;100292.38;5052557;28;20029;-62
2022/04/21 08:41:03;;;;;;;7.00;6.70;;;;;;;16.97;33.00;100285.50;5052100;28;20111;-62
2022/04/21 08:43:29;;;;;;;6.60;6.30;;;;;;;17.39;32.76;100291.78;5052364;28;20020;-62
2022/04/21 08:45:56;;;;;;;6.88;6.57;;;;;;;18.09;32.04;100292.13;5052115;28;20031;-62
2022/04/21 08:48:24;;;;;;;6.90;6.60;;;;;;;18.80;31.39;100303.78;5046704;28;20769;-63
2022/04/21 08:50:50;;;;;;;7.13;6.82;;;;;;;18.12;32.72;100291.63;5047825;28;20033;-62
2022/04/21 08:53:21;;;;;;;6.90;6.60;;;;;;;18.27;30.80;100283.16;5051360;28;20074;-62
2022/04/21 08:55:49;;;;;;;6.80;6.50;;;;;;;18.41;30.54;100289.13;5052091;28;20037;-62
2022/04/21 08:58:15;;;;;;;6.90;6.60;;;;;;;18.52;30.80;100288.34;5051947;28;20045;-63
2022/04/21 09:00:43;;;;;;;6.60;6.30;;;;;;;17.71;31.48;100284.41;5048398;28;20040;-63
2022/04/21 09:03:10;;;;;;;6.70;6.40;;;;;;;17.84;30.65;100286.06;5052085;28;20104;-61
2022/04/21 09:05:36;;;;;;;6.78;6.47;;;;;;;17.23;31.89;100277.13;5050916;28;20024;-64
2022/04/21 09:08:02;;;;;;;7.15;6.85;;;;;;;17.82;31.90;100283.63;5047112;28;20037;-63
2022/04/21 09:10:29;;;;;;;6.95;6.65;;;;;;;18.44;30.66;100278.75;5046808;28;20385;-66
2022/04/21 09:12:57;;;;;;;6.93;6.63;;;;;;;18.31;29.52;100270.09;5052163;28;20024;-64
2022/04/21 09:15:30;;;;;;;6.80;6.50;;;;;;;18.04;30.31;100267.81;5047647;28;20044;-63
2022/04/21 09:18:02;;;;;;;6.65;6.35;;;;;;;17.94;30.20;100275.63;5051935;28;20024;-63
2022/04/21 09:20:39;;;;;;;6.80;6.50;;;;;;;18.12;29.98;100280.09;5051552;28;20025;-63
2022/04/21 09:23:10;;;;;;;7.00;6.70;;;;;;;19.00;29.83;100271.16;5050404;28;20029;-64
2022/04/21 09:25:50;;;;;;;6.70;6.40;;;;;;;17.62;30.38;100275.81;5051327;28;20519;-63
2022/04/21 09:28:26;;;;;;;6.70;6.40;;;;;;;17.99;29.92;100277.59;5043892;28;20037;-63
2022/04/21 09:30:55;;;;;;;7.05;6.75;;;;;;;17.83;30.07;100279.06;5046367;28;20456;-63
2022/04/21 09:33:30;;;;;;;6.90;6.60;;;;;;;17.60;30.29;100269.03;5045761;28;20032;-63
2022/04/21 09:35:57;;;;;;;6.80;6.50;;;;;;;17.88;29.44;100271.97;5051339;28;20032;-63
2022/04/21 09:38:22;;;;;;;6.70;6.40;;;;;;;17.34;30.27;100264.84;5051721;28;20068;-63
2022/04/21 09:40:49;;;;;;;6.88;6.57;;;;;;;16.64;29.31;100269.69;5050596;28;20025;-62
2022/04/21 09:43:26;;;;;;;6.63;6.32;;;;;;;17.36;28.84;100274.28;5048239;28;20077;-62
2022/04/21 09:46:08;;;;;;;6.93;6.63;;;;;;;17.56;29.14;100279.41;5051651;28;20033;-63
2022/04/21 09:48:34;;;;;;;7.00;6.70;;;;;;;17.51;29.02;100262.34;5044950;28;20564;-62
2022/04/21 09:51:13;;;;;;;6.85;6.55;;;;;;;17.78;28.52;100284.31;5047341;28;20116;-63
2022/04/21 09:53:58;;;;;;;6.78;6.47;;;;;;;17.43;28.77;100276.09;5051177;28;20457;-61
2022/04/21 09:56:39;;;;;;;6.55;6.25;;;;;;;18.01;28.17;100270.97;5048887;28;20110;-64
2022/04/21 09:59:12;;;;;;;6.75;6.45;;;;;;;17.10;28.92;100259.34;5051163;28;20013;-63
2022/04/21 10:01:42;;;;;;;7.50;7.20;;;;;;;17.90;28.13;100277.13;5051172;28;20172;-63
2022/04/21 10:04:09;;;;;;;6.95;6.65;;;;;;;17.93;27.87;100266.75;5052394;28;20107;-63
2022/04/21 10:06:39;;;;;;;6.90;6.60;;;;;;;17.97;27.69;100274.34;5054454;28;20028;-63
2022/04/21 10:09:05;;;;;;;6.93;6.63;;;;;;;17.59;28.78;100262.84;5055121;28;20035;-62
2022/04/21 10:11:31;;;;;;;6.65;6.35;;;;;;;17.85;28.16;100267.09;5051969;28;20028;-62
2022/04/21 10:13:57;;;;;;;7.15;6.85;;;;;;;17.61;28.77;100258.06;5054100;28;20029;-63
2022/04/21 10:16:26;;;;;;;6.50;6.20;;;;;;;18.76;26.97;100254.25;5054935;28;20112;-63
2022/04/21 10:18:54;;;;;;;6.47;6.18;;;;;;;18.43;27.52;100257.47;5054815;28;20036;-63
2022/04/21 10:21:32;;;;;;;7.00;6.70;;;;;;;18.20;27.81;100258.28;5054815;28;20028;-62
2022/04/21 10:23:58;;;;;;;7.18;6.88;;;;;;;17.78;28.29;100263.69;5051522;28;20379;-64
2022/04/21 10:26:53;;;;;;;6.60;6.30;;;;;;;18.17;27.97;100251.50;5041271;28;20036;-63
2022/04/21 10:29:23;;;;;;;;;;;;;;;18.22;28.69;100256.19;5050645;28;20124;-62
2022/04/21 10:31:57;;;;;;;6.70;6.40;;;;;;;17.75;28.76;100260.63;5045861;28;20007;-64
2022/04/21 10:34:28;;;;;;;6.45;6.15;;;;;;;17.74;27.19;100257.13;5054975;28;20078;-60
2022/04/21 10:37:24;;;;;;;6.80;6.50;;;;;;;17.10;28.42;100256.66;5054716;28;20110;-61
2022/04/21 10:39:58;;;;;;;7.05;6.75;;;;;;;17.26;28.37;100255.25;5050876;28;20078;-63
2022/04/21 10:42:24;;;;;;;6.80;6.50;;;;;;;17.59;28.12;100262.03;5054596;28;20511;-62
2022/04/21 10:44:53;;;;;;;6.70;6.40;;;;;;;16.85;28.82;100256.75;5054687;28;20036;-62
2022/04/21 10:47:31;;;;;;;6.70;6.40;;;;;;;16.54;28.69;100240.75;5053631;28;20426;-63
2022/04/21 10:50:14;;;;;;;6.70;6.40;;;;;;;17.13;29.72;100250.03;5050429;28;20116;-64
2022/04/21 10:57:58;;;;;;;6.90;6.60;;;;;;;17.90;26.97;100251.09;5052979;28;20098;-62
2022/04/21 11:00:28;;;;;;;7.10;6.80;;;;;;;18.11;26.72;100256.97;5052991;28;20029;-63
2022/04/21 11:03:08;;;;;;;6.70;6.40;;;;;;;18.19;26.82;100248.59;5053317;28;20472;-62
2022/04/21 11:05:43;;;;;;;6.90;6.60;;;;;;;18.13;26.78;100254.88;5051589;28;20043;-63
2022/04/21 11:08:13;;;;;;;6.30;6.05;;;;;;;17.19;27.49;100248.34;5043773;28;20025;-61
2022/04/21 11:10:39;;;;;;;6.80;6.50;;;;;;;16.82;27.81;100246.47;5052764;28;20024;-62
2022/04/21 11:13:10;;;;;;;6.10;5.90;;;;;;;17.45;27.16;100245.31;5053033;28;20036;-62
2022/04/21 11:15:39;;;;;;;6.60;6.30;;;;;;;17.36;27.03;100247.47;5052664;28;20468;-62
2022/04/21 11:18:30;;;;;;;6.70;6.40;;;;;;;16.48;27.96;100239.78;5052754;28;20028;-62
2022/04/21 11:21:31;;;;;;;6.97;6.68;;;;;;;16.05;28.78;100242.41;5043502;28;20518;-62
2022/04/21 11:23:56;;;;;;;6.70;6.40;;;;;;;16.09;29.24;100242.78;5047397;28;20327;-62
2022/04/21 11:26:25;;;;;;;6.68;6.38;;;;;;;15.28;30.51;100230.09;5045244;28;20024;-62
2022/04/21 11:28:51;;;;;;;6.90;6.60;;;;;;;15.42;30.40;100234.31;5052762;28;20063;-63
2022/04/21 11:31:21;;;;;;;6.63;6.32;;;;;;;15.37;30.24;100226.13;5052663;28;20467;-63
2022/04/21 11:33:46;;;;;;;6.80;6.50;;;;;;;15.78;29.55;100227.56;5052444;28;20094;-63
2022/04/21 11:36:16;;;;;;;6.60;6.30;;;;;;;15.29;30.69;100234.41;5052505;28;20025;-62
2022/04/21 11:38:43;;;;;;;6.75;6.45;;;;;;;15.64;30.15;100232.16;5051740;28;20040;-63
2022/04/21 11:41:10;;;;;;;6.75;6.45;;;;;;;15.62;30.84;100227.03;5052715;28;20048;-64
2022/04/21 11:43:37;;;;;;;6.88;6.57;;;;;;;15.82;30.84;100236.81;5052567;28;20033;-63
2022/04/21 11:46:05;;;;;;;6.40;6.10;;;;;;;15.53;30.31;100228.31;5052308;28;20029;-62
2022/04/21 11:48:31;;;;;;;6.65;6.35;;;;;;;15.79;30.39;100224.69;5052266;28;20027;-61
2022/04/21 11:50:57;;;;;;;6.65;6.35;;;;;;;16.06;30.31;100214.59;5051593;28;20147;-62
2022/04/21 11:53:23;;;;;;;6.70;6.40;;;;;;;16.47;29.64;100211.38;5052302;28;20021;-63
2022/04/21 11:55:50;;;;;;;7.07;6.78;;;;;;;16.56;29.75;100210.03;5051333;28;20364;-61
2022/04/21 11:58:30;;;;;;;6.60;6.30;;;;;;;16.25;29.45;100212.81;5044172;28;211389;-62
2022/04/21 12:06:40;;;;;;;6.68;6.38;;;;;;;16.32;29.76;100200.19;5052419;28;20573;-61
2022/04/21 12:09:07;;;;;;;6.53;6.22;;;;;;;15.88;30.35;100202.00;5052846;28;20033;-62
2022/04/21 12:11:33;;;;;;;7.13;6.82;;;;;;;16.34;30.18;100191.94;5052919;28;20056;-63
2022/04/21 12:13:59;;;;;;;6.85;6.55;;;;;;;16.02;30.39;100208.88;5052303;28;20056;-61
2022/04/21 12:16:35;;;;;;;6.70;6.40;;;;;;;16.45;29.54;100199.22;5049715;28;20604;-62
2022/04/21 12:19:16;;;;;;;7.15;6.85;;;;;;;16.57;29.12;100197.44;5043904;28;20041;-61